createdAt,value
2019-01-23T00:01:21.276Z,-4.20
2019-01-23T00:03:49.430Z,-4.30
2019-01-23T00:06:17.190Z,-4.30
2019-01-23T00:08:45.140Z,-4.30
2019-01-23T00:11:13.437Z,-4.30
2019-01-23T00:13:41.224Z,-4.30
2019-01-23T00:16:08.961Z,-4.30
2019-01-23T00:18:36.553Z,-4.30
2019-01-23T00:21:04.610Z,-4.30
2019-01-23T00:23:32.295Z,-4.30
2019-01-23T00:26:00.324Z,-4.30
2019-01-23T00:28:28.168Z,-4.20
2019-01-23T00:30:55.861Z,-4.20
2019-01-23T00:33:23.659Z,-4.20
2019-01-23T00:35:51.221Z,-4.20
2019-01-23T00:38:19.796Z,-4.20
2019-01-23T00:40:47.678Z,-4.10
2019-01-23T00:43:15.357Z,-4.20
2019-01-23T00:45:43.148Z,-4.20
2019-01-23T00:48:10.833Z,-4.20
2019-01-23T00:50:38.513Z,-4.20
2019-01-23T00:53:06.303Z,-4.20
2019-01-23T00:55:34.339Z,-4.20
2019-01-23T00:58:02.404Z,-4.20
2019-01-23T01:00:30.274Z,-4.20
2019-01-23T01:02:58.587Z,-4.10
2019-01-23T01:05:26.501Z,-4.20
2019-01-23T01:07:54.243Z,-4.20
2019-01-23T01:10:22.236Z,-4.20
2019-01-23T01:12:49.988Z,-4.20
2019-01-23T01:15:17.785Z,-4.20
2019-01-23T01:17:45.555Z,-4.20
2019-01-23T01:20:14.186Z,-4.20
2019-01-23T01:22:42.419Z,-4.20
2019-01-23T01:25:13.021Z,-4.20
2019-01-23T01:27:40.769Z,-4.20
2019-01-23T01:30:13.639Z,-4.20
2019-01-23T01:32:41.686Z,-4.20
2019-01-23T01:35:09.928Z,-4.20
2019-01-23T01:37:38.036Z,-4.20
2019-01-23T01:40:12.354Z,-4.10
2019-01-23T01:42:37.882Z,-4.20
2019-01-23T01:45:06.711Z,-4.20
2019-01-23T01:50:14.728Z,-4.20
2019-01-23T01:52:42.839Z,-4.20
2019-01-23T01:55:11.072Z,-4.20
2019-01-23T01:57:38.861Z,-4.20
2019-01-23T02:00:11.893Z,-4.30
2019-01-23T02:02:40.484Z,-4.30
2019-01-23T02:05:08.476Z,-4.30
2019-01-23T02:07:36.268Z,-4.30
2019-01-23T02:10:06.080Z,-4.30
2019-01-23T02:12:33.850Z,-4.30
2019-01-23T02:15:01.664Z,-4.30
2019-01-23T02:17:29.802Z,-4.40
2019-01-23T02:19:57.493Z,-4.40
2019-01-23T02:22:25.288Z,-4.40
2019-01-23T02:24:53.069Z,-4.40
2019-01-23T02:27:21.010Z,-4.40
2019-01-23T02:29:48.797Z,-4.40
2019-01-23T02:32:16.481Z,-4.40
2019-01-23T02:34:44.185Z,-4.50
2019-01-23T02:37:11.959Z,-4.40
2019-01-23T02:39:39.769Z,-4.40
2019-01-23T02:42:07.810Z,-4.40
2019-01-23T02:44:35.912Z,-4.40
2019-01-23T02:47:03.712Z,-4.40
2019-01-23T02:49:31.589Z,-4.50
2019-01-23T02:51:59.477Z,-4.40
2019-01-23T02:54:27.215Z,-4.50
2019-01-23T02:56:55.145Z,-4.40
2019-01-23T02:59:22.903Z,-4.40
2019-01-23T03:01:50.716Z,-4.40
2019-01-23T03:04:18.467Z,-4.40
2019-01-23T03:06:46.154Z,-4.40
2019-01-23T03:09:14.361Z,-4.40
2019-01-23T03:11:42.428Z,-4.40
2019-01-23T03:14:10.090Z,-4.40
2019-01-23T03:16:37.925Z,-4.40
2019-01-23T03:19:05.875Z,-4.30
2019-01-23T03:21:33.466Z,-4.20
2019-01-23T03:24:01.232Z,-4.20
2019-01-23T03:26:29.065Z,-4.20
2019-01-23T03:28:56.806Z,-4.30
2019-01-23T03:31:24.606Z,-4.30
2019-01-23T03:33:52.305Z,-4.40
2019-01-23T03:36:20.086Z,-4.40
2019-01-23T03:38:47.746Z,-4.40
2019-01-23T03:41:15.816Z,-4.30
2019-01-23T03:43:43.860Z,-4.30
2019-01-23T03:46:11.670Z,-4.30
2019-01-23T03:48:39.631Z,-4.30
2019-01-23T03:51:07.389Z,-4.40
2019-01-23T03:53:35.080Z,-4.50
2019-01-23T03:56:02.875Z,-4.50
2019-01-23T03:58:30.742Z,-4.50
2019-01-23T04:00:58.498Z,-4.50
2019-01-23T04:03:26.321Z,-4.40
2019-01-23T04:05:54.252Z,-4.40
2019-01-23T04:08:22.315Z,-4.40
2019-01-23T04:10:50.075Z,-4.40
2019-01-23T04:13:18.049Z,-4.40
2019-01-23T04:15:45.917Z,-4.50
2019-01-23T04:18:13.852Z,-4.40
2019-01-23T04:20:41.792Z,-4.30
2019-01-23T04:23:09.477Z,-4.30
2019-01-23T04:25:37.247Z,-4.30
2019-01-23T04:28:05.074Z,-4.30
2019-01-23T04:30:32.744Z,-4.30
2019-01-23T04:33:01.030Z,-4.30
2019-01-23T04:35:28.802Z,-4.30
2019-01-23T04:37:56.768Z,-4.30
2019-01-23T04:40:24.560Z,-4.30
2019-01-23T04:42:52.890Z,-4.30
2019-01-23T04:45:20.688Z,-4.40
2019-01-23T04:47:48.475Z,-4.40
2019-01-23T04:50:16.772Z,-4.40
2019-01-23T04:53:01.688Z,-4.40
2019-01-23T04:55:29.531Z,-4.40
2019-01-23T04:57:57.238Z,-4.50
2019-01-23T05:00:26.118Z,-4.50
2019-01-23T05:02:53.941Z,-4.60
2019-01-23T05:05:21.734Z,-4.60
2019-01-23T05:07:49.424Z,-4.60
2019-01-23T05:10:17.244Z,-4.70
2019-01-23T05:12:44.978Z,-4.70
2019-01-23T05:15:12.988Z,-4.80
2019-01-23T05:17:40.840Z,-4.80
2019-01-23T05:20:09.609Z,-4.80
2019-01-23T05:22:37.654Z,-4.90
2019-01-23T05:25:05.703Z,-4.90
2019-01-23T05:27:33.466Z,-4.90
2019-01-23T05:30:01.062Z,-4.90
2019-01-23T05:32:29.038Z,-4.90
2019-01-23T05:34:57.139Z,-5.00
2019-01-23T05:37:24.907Z,-5.00
2019-01-23T05:39:52.590Z,-5.00
2019-01-23T05:42:20.477Z,-5.00
2019-01-23T05:44:48.218Z,-5.00
2019-01-23T05:47:16.152Z,-5.10
2019-01-23T05:49:44.256Z,-5.10
2019-01-23T05:52:12.475Z,-5.20
2019-01-23T05:54:40.528Z,-5.20
2019-01-23T05:57:08.453Z,-5.20
2019-01-23T05:59:36.578Z,-5.20
2019-01-23T06:02:04.907Z,-5.30
2019-01-23T06:04:32.727Z,-5.30
2019-01-23T06:07:00.761Z,-5.20
2019-01-23T06:09:29.644Z,-5.20
2019-01-23T06:11:57.212Z,-5.30
2019-01-23T06:14:25.020Z,-5.30
2019-01-23T06:16:52.793Z,-5.30
2019-01-23T06:19:20.403Z,-5.20
2019-01-23T06:21:48.543Z,-5.30
2019-01-23T06:24:16.484Z,-5.30
2019-01-23T06:26:44.268Z,-5.40
2019-01-23T06:29:11.951Z,-5.50
2019-01-23T06:31:40.018Z,-5.60
2019-01-23T06:34:07.743Z,-5.60
2019-01-23T06:36:35.404Z,-5.50
2019-01-23T06:39:06.779Z,-5.50
2019-01-23T06:41:34.499Z,-5.40
2019-01-23T06:44:02.285Z,-5.40
2019-01-23T06:46:36.182Z,-5.40
2019-01-23T06:49:04.000Z,-5.40
2019-01-23T06:51:32.026Z,-5.40
2019-01-23T06:53:59.825Z,-5.30
2019-01-23T06:56:27.788Z,-5.30
2019-01-23T06:58:55.877Z,-5.40
2019-01-23T07:01:23.550Z,-5.30
2019-01-23T07:03:51.187Z,-5.30
2019-01-23T07:06:19.204Z,-5.40
2019-01-23T07:08:48.332Z,-5.40
2019-01-23T07:11:16.067Z,-5.40
2019-01-23T07:13:43.852Z,-5.40
2019-01-23T07:16:11.646Z,-5.30
2019-01-23T07:18:39.738Z,-5.30
2019-01-23T07:21:07.560Z,-5.30
2019-01-23T07:23:35.586Z,-5.30
2019-01-23T07:26:03.819Z,-5.30
2019-01-23T07:28:31.951Z,-5.30
2019-01-23T07:30:59.829Z,-5.30
2019-01-23T07:33:27.914Z,-5.30
2019-01-23T07:35:55.858Z,-5.30
2019-01-23T07:38:23.647Z,-5.30
2019-01-23T07:40:51.442Z,-5.40
2019-01-23T07:43:19.277Z,-5.30
2019-01-23T07:45:46.970Z,-5.30
2019-01-23T07:48:14.645Z,-5.30
2019-01-23T07:50:42.450Z,-5.20
2019-01-23T07:53:10.221Z,-5.20
2019-01-23T07:55:37.915Z,-5.20
2019-01-23T07:58:05.983Z,-5.20
2019-01-23T08:00:33.776Z,-5.20
2019-01-23T08:03:01.568Z,-5.10
2019-01-23T08:05:29.386Z,-5.10
2019-01-23T08:07:57.320Z,-5.10
2019-01-23T08:10:25.123Z,-5.10
2019-01-23T08:12:53.637Z,-5.10
2019-01-23T08:15:33.179Z,-5.00
2019-01-23T08:18:00.857Z,-5.00
2019-01-23T08:20:29.088Z,-5.00
2019-01-23T08:22:57.261Z,-5.10
2019-01-23T08:25:25.152Z,-5.20
2019-01-23T08:27:53.191Z,-5.20
2019-01-23T08:30:21.029Z,-5.20
2019-01-23T08:32:48.889Z,-5.10
2019-01-23T08:35:18.124Z,-5.00
2019-01-23T08:37:46.173Z,-4.90
2019-01-23T08:40:14.604Z,-4.90
2019-01-23T08:42:42.852Z,-4.80
2019-01-23T08:45:10.973Z,-4.80
2019-01-23T08:47:38.622Z,-4.80
2019-01-23T08:50:31.974Z,-4.80
2019-01-23T08:52:59.726Z,-4.70
2019-01-23T08:55:27.687Z,-4.70
2019-01-23T08:57:55.439Z,-4.70
2019-01-23T09:00:23.226Z,-4.60
2019-01-23T09:02:51.515Z,-4.60
2019-01-23T09:05:19.912Z,-4.60
2019-01-23T09:07:47.945Z,-4.60
2019-01-23T09:10:18.717Z,-4.50
2019-01-23T09:12:46.477Z,-4.50
2019-01-23T09:15:14.690Z,-4.40
2019-01-23T09:17:43.165Z,-4.40
2019-01-23T09:20:11.992Z,-4.40
2019-01-23T09:22:39.748Z,-4.30
2019-01-23T09:25:10.155Z,-4.30
2019-01-23T09:27:37.824Z,-4.20
2019-01-23T09:30:20.233Z,-4.10
2019-01-23T09:33:57.869Z,-4.10
2019-01-23T09:37:45.013Z,-4.10
2019-01-23T09:40:40.851Z,-4.10
2019-01-23T09:44:11.528Z,-4.10
2019-01-23T09:47:24.585Z,-4.10
2019-01-23T09:50:56.449Z,-4.10
2019-01-23T09:53:33.437Z,-4.20
2019-01-23T09:56:01.852Z,-4.30
2019-01-23T09:58:29.881Z,-4.30
2019-01-23T10:00:59.826Z,-4.30
2019-01-23T10:03:27.235Z,-4.20
2019-01-23T10:05:55.317Z,-4.30
2019-01-23T10:08:23.121Z,-4.50
2019-01-23T10:10:51.007Z,-4.40
2019-01-23T10:13:18.906Z,-4.30
2019-01-23T10:16:01.250Z,-4.30
2019-01-23T10:18:29.313Z,-4.30
2019-01-23T10:20:57.125Z,-4.30
2019-01-23T10:23:25.404Z,-4.30
2019-01-23T10:25:53.203Z,-4.50
2019-01-23T10:28:21.344Z,-4.40
2019-01-23T10:30:49.413Z,-4.40
2019-01-23T10:33:17.529Z,-4.30
2019-01-23T10:35:45.642Z,-4.20
2019-01-23T10:38:13.525Z,-4.20
2019-01-23T10:40:41.336Z,-4.20
2019-01-23T10:43:09.641Z,-4.20
2019-01-23T10:45:37.626Z,-4.30
2019-01-23T10:48:05.787Z,-4.30
2019-01-23T10:50:33.753Z,-4.30
2019-01-23T10:53:01.519Z,-4.30
2019-01-23T10:55:29.711Z,-4.20
2019-01-23T10:57:57.758Z,-4.10
2019-01-23T11:00:25.937Z,-4.00
2019-01-23T11:02:53.800Z,-4.00
2019-01-23T11:05:22.513Z,-4.00
2019-01-23T11:07:50.368Z,-3.90
2019-01-23T11:10:21.199Z,-3.80
2019-01-23T11:12:49.706Z,-3.80
2019-01-23T11:15:17.581Z,-3.70
2019-01-23T11:17:45.385Z,-3.60
2019-01-23T11:20:15.689Z,-3.60
2019-01-23T11:22:43.593Z,-3.50
2019-01-23T11:25:12.846Z,-3.40
2019-01-23T11:27:40.949Z,-3.30
2019-01-23T11:30:14.119Z,-3.30
2019-01-23T11:32:41.953Z,-3.30
2019-01-23T11:35:10.764Z,-3.20
2019-01-23T11:37:38.932Z,-3.20
2019-01-23T11:40:14.140Z,-3.20
2019-01-23T11:42:42.295Z,-3.20
2019-01-23T11:45:11.489Z,-3.10
2019-01-23T11:47:39.315Z,-3.10
2019-01-23T11:50:08.401Z,-2.80
2019-01-23T11:52:36.241Z,-2.80
2019-01-23T11:55:04.725Z,-2.70
2019-01-23T11:57:32.545Z,-2.70
2019-01-23T12:00:00.410Z,-2.80
2019-01-23T12:02:30.925Z,-2.90
2019-01-23T12:04:57.807Z,-2.90
2019-01-23T12:07:25.613Z,-2.70
2019-01-23T12:09:53.679Z,-2.50
2019-01-23T12:12:21.494Z,-2.30
2019-01-23T12:14:49.191Z,-2.10
2019-01-23T12:17:17.015Z,-1.80
2019-01-23T12:19:44.967Z,-1.60
2019-01-23T12:22:12.807Z,-1.30
2019-01-23T12:24:40.867Z,-1.10
2019-01-23T12:27:08.974Z,-1.00
2019-01-23T12:29:36.641Z,-1.10
2019-01-23T12:32:04.534Z,-0.90
2019-01-23T12:34:32.302Z,-1.00
2019-01-23T12:37:00.291Z,-0.90
2019-01-23T12:39:27.965Z,-0.80
2019-01-23T12:41:55.858Z,-0.80
2019-01-23T12:44:23.639Z,-0.90
2019-01-23T12:46:51.420Z,-0.80
2019-01-23T12:49:19.189Z,-0.70
2019-01-23T12:51:46.991Z,-0.40
2019-01-23T12:54:14.635Z,-0.60
2019-01-23T12:56:42.716Z,-0.30
2019-01-23T12:59:11.028Z,-0.20
2019-01-23T13:01:42.212Z,0.30
2019-01-23T13:04:08.801Z,0.50
2019-01-23T13:06:38.328Z,1.00
2019-01-23T13:09:14.472Z,1.10
2019-01-23T13:11:42.691Z,1.90
2019-01-23T13:14:10.473Z,2.30
2019-01-23T13:16:38.318Z,2.70
2019-01-23T13:19:06.445Z,2.60
2019-01-23T13:21:34.540Z,2.80
2019-01-23T13:24:02.627Z,2.20
2019-01-23T13:26:30.742Z,2.20
2019-01-23T13:28:58.345Z,2.00
2019-01-23T13:31:26.452Z,2.30
2019-01-23T13:33:54.235Z,2.20
2019-01-23T13:36:22.090Z,2.20
2019-01-23T13:38:50.033Z,1.60
2019-01-23T13:41:18.122Z,1.30
2019-01-23T13:43:45.772Z,1.30
2019-01-23T13:46:13.465Z,1.20
2019-01-23T13:48:41.211Z,1.00
2019-01-23T13:51:09.567Z,1.10
2019-01-23T13:53:37.372Z,1.20
2019-01-23T13:56:05.262Z,1.20
2019-01-23T13:58:33.917Z,1.40
2019-01-23T14:01:01.862Z,1.50
2019-01-23T14:03:29.604Z,1.20
2019-01-23T14:05:58.788Z,0.80
2019-01-23T14:08:26.676Z,0.70
2019-01-23T14:10:54.437Z,0.30
2019-01-23T14:13:22.247Z,0.40
2019-01-23T14:15:50.022Z,0.20
2019-01-23T14:18:18.956Z,0.20
2019-01-23T14:20:46.988Z,0.20
2019-01-23T14:23:14.953Z,0.30
2019-01-23T14:25:42.613Z,0.20
2019-01-23T14:28:10.500Z,0.20
2019-01-23T14:30:41.911Z,0.10
2019-01-23T14:33:09.812Z,-0.10
2019-01-23T14:35:40.356Z,-0.20
2019-01-23T14:38:08.146Z,-0.10
2019-01-23T14:40:35.905Z,0.00
2019-01-23T14:43:05.349Z,0.00
2019-01-23T14:45:33.052Z,0.00
2019-01-23T14:48:00.839Z,-0.20
2019-01-23T14:50:28.655Z,-0.40
2019-01-23T14:52:56.448Z,-0.50
2019-01-23T14:55:24.233Z,-0.60
2019-01-23T14:57:52.481Z,-0.70
2019-01-23T15:00:25.437Z,-0.80
2019-01-23T15:02:53.540Z,-0.80
2019-01-23T15:05:21.299Z,-0.90
2019-01-23T15:07:49.362Z,-0.90
2019-01-23T15:10:24.072Z,-0.90
2019-01-23T15:12:51.962Z,-1.00
2019-01-23T15:15:19.938Z,-1.00
2019-01-23T15:17:48.190Z,-1.10
2019-01-23T15:20:28.616Z,-1.20
2019-01-23T15:22:56.406Z,-1.30
2019-01-23T15:25:24.408Z,-1.30
2019-01-23T15:27:52.513Z,-1.30
2019-01-23T15:30:20.763Z,-1.30
2019-01-23T15:32:48.731Z,-1.30
2019-01-23T15:35:16.900Z,-1.40
2019-01-23T15:37:44.718Z,-1.40
2019-01-23T15:40:17.056Z,-1.50
2019-01-23T15:42:44.851Z,-1.50
2019-01-23T15:45:13.480Z,-1.50
2019-01-23T15:47:41.641Z,-1.60
2019-01-23T15:50:13.579Z,-1.60
2019-01-23T15:52:41.740Z,-1.60
2019-01-23T15:55:12.354Z,-1.60
2019-01-23T15:57:40.279Z,-1.70
2019-01-23T16:00:14.158Z,-1.70
2019-01-23T16:02:41.957Z,-1.70
2019-01-23T16:05:09.965Z,-1.70
2019-01-23T16:07:37.756Z,-1.80
2019-01-23T16:10:06.627Z,-1.80
2019-01-23T16:12:34.909Z,-1.80
2019-01-23T16:15:03.422Z,-1.80
2019-01-23T16:17:31.194Z,-1.90
2019-01-23T16:19:59.030Z,-1.90
2019-01-23T16:22:27.073Z,-1.90
2019-01-23T16:24:55.124Z,-1.90
2019-01-23T16:27:22.872Z,-1.90
2019-01-23T16:29:51.182Z,-2.00
2019-01-23T16:32:18.940Z,-2.00
2019-01-23T16:34:46.674Z,-2.00
2019-01-23T16:37:14.428Z,-2.00
2019-01-23T16:39:42.409Z,-2.00
2019-01-23T16:42:10.268Z,-2.00
2019-01-23T16:44:38.340Z,-2.10
2019-01-23T16:47:06.006Z,-2.10
2019-01-23T16:49:33.973Z,-2.10
2019-01-23T16:52:01.891Z,-2.20
2019-01-23T16:54:29.750Z,-2.20
2019-01-23T16:56:57.541Z,-2.20
2019-01-23T16:59:25.351Z,-2.20
2019-01-23T17:01:53.394Z,-2.20
2019-01-23T17:04:21.399Z,-2.20
2019-01-23T17:06:49.411Z,-2.20
2019-01-23T17:09:17.205Z,-2.30
2019-01-23T17:11:44.974Z,-2.30
2019-01-23T17:14:13.033Z,-2.30
2019-01-23T17:16:42.074Z,-2.30
2019-01-23T17:19:10.972Z,-2.30
2019-01-23T17:21:38.668Z,-2.30
2019-01-23T17:24:06.462Z,-2.30
2019-01-23T17:26:34.358Z,-2.30
2019-01-23T17:29:02.371Z,-2.30
2019-01-23T17:31:30.049Z,-2.30
2019-01-23T17:33:57.778Z,-2.40
2019-01-23T17:36:25.545Z,-2.60
2019-01-23T17:38:53.491Z,-2.60
2019-01-23T17:41:21.511Z,-2.80
2019-01-23T17:43:49.428Z,-2.90
2019-01-23T17:46:17.195Z,-2.80
2019-01-23T17:48:45.381Z,-2.80
2019-01-23T17:51:13.073Z,-2.70
2019-01-23T17:53:40.868Z,-2.70
2019-01-23T17:56:08.644Z,-2.70
2019-01-23T17:58:36.427Z,-2.70
2019-01-23T18:01:04.973Z,-3.00
2019-01-23T18:03:32.673Z,-3.20
2019-01-23T18:06:00.517Z,-3.40
2019-01-23T18:08:28.290Z,-3.40
2019-01-23T18:10:56.093Z,-3.50
2019-01-23T18:13:23.760Z,-3.60
2019-01-23T18:15:52.485Z,-3.60
2019-01-23T18:18:20.776Z,-3.60
2019-01-23T18:20:48.919Z,-3.60
2019-01-23T18:23:16.688Z,-3.60
2019-01-23T18:25:44.516Z,-3.60
2019-01-23T18:28:12.263Z,-3.60
2019-01-23T18:30:55.565Z,-3.50
2019-01-23T18:33:35.327Z,-3.50
2019-01-23T18:36:47.712Z,-3.50
2019-01-23T18:40:21.176Z,-3.70
2019-01-23T18:43:51.491Z,-3.70
2019-01-23T18:47:03.050Z,-3.90
2019-01-23T18:50:46.337Z,-4.00
2019-01-23T18:53:14.101Z,-4.00
2019-01-23T18:55:41.901Z,-4.20
2019-01-23T18:58:10.248Z,-4.30
2019-01-23T19:00:38.078Z,-4.30
2019-01-23T19:03:07.193Z,-4.30
2019-01-23T19:05:35.354Z,-4.30
2019-01-23T19:08:04.585Z,-4.30
2019-01-23T19:10:32.554Z,-4.30
2019-01-23T19:13:00.396Z,-4.30
2019-01-23T19:15:31.206Z,-4.30
2019-01-23T19:18:01.711Z,-4.20
2019-01-23T19:20:29.568Z,-4.20
2019-01-23T19:22:57.376Z,-4.30
2019-01-23T19:25:25.522Z,-4.40
2019-01-23T19:27:53.381Z,-4.30
2019-01-23T19:30:21.643Z,-4.10
2019-01-23T19:32:50.013Z,-4.00
2019-01-23T19:35:18.192Z,-3.90
2019-01-23T19:37:52.311Z,-4.00
2019-01-23T19:40:20.213Z,-4.30
2019-01-23T19:42:48.087Z,-4.30
2019-01-23T19:45:20.822Z,-4.50
2019-01-23T19:47:52.088Z,-4.70
2019-01-23T19:50:20.045Z,-4.80
2019-01-23T19:52:48.277Z,-4.80
2019-01-23T19:55:17.148Z,-4.90
2019-01-23T19:57:46.513Z,-5.00
2019-01-23T20:00:24.290Z,-4.70
2019-01-23T20:02:55.172Z,-4.90
2019-01-23T20:05:26.484Z,-5.00
2019-01-23T20:07:54.828Z,-5.00
2019-01-23T20:10:23.488Z,-4.90
2019-01-23T20:12:54.234Z,-4.90
2019-01-23T20:15:23.034Z,-5.00
2019-01-23T20:17:54.695Z,-5.00
2019-01-23T20:20:22.838Z,-4.90
2019-01-23T20:22:50.583Z,-4.70
2019-01-23T20:25:22.929Z,-4.80
2019-01-23T20:27:51.421Z,-4.60
2019-01-23T20:30:35.194Z,-4.50
2019-01-23T20:33:03.513Z,-4.50
2019-01-23T20:35:31.418Z,-4.60
2019-01-23T20:37:59.785Z,-4.60
2019-01-23T20:40:27.600Z,-4.60
2019-01-23T20:42:55.704Z,-4.60
2019-01-23T20:45:24.283Z,-4.60
2019-01-23T20:47:51.965Z,-4.70
2019-01-23T20:50:22.995Z,-4.70
2019-01-23T20:52:51.057Z,-4.70
2019-01-23T20:55:18.886Z,-4.70
2019-01-23T20:57:50.877Z,-4.70
2019-01-23T21:00:21.900Z,-4.80
2019-01-23T21:02:50.041Z,-4.80
2019-01-23T21:05:18.202Z,-4.90
2019-01-23T21:07:46.752Z,-4.90
2019-01-23T21:10:15.664Z,-4.90
2019-01-23T21:12:43.581Z,-4.90
2019-01-23T21:15:15.979Z,-5.10
2019-01-23T21:17:43.811Z,-5.00
2019-01-23T21:20:15.182Z,-4.90
2019-01-23T21:22:43.369Z,-4.90
2019-01-23T21:25:11.766Z,-5.00
2019-01-23T21:27:39.557Z,-4.90
2019-01-23T21:30:15.335Z,-5.10
2019-01-23T21:32:43.169Z,-5.00
2019-01-23T21:35:11.088Z,-4.90
2019-01-23T21:37:39.048Z,-4.90
2019-01-23T21:40:12.765Z,-5.10
2019-01-23T21:42:40.796Z,-5.20
2019-01-23T21:45:10.172Z,-5.30
2019-01-23T21:47:37.995Z,-5.40
2019-01-23T21:50:09.095Z,-5.50
2019-01-23T21:52:36.687Z,-5.40
2019-01-23T21:55:06.448Z,-5.50
2019-01-23T21:57:34.749Z,-5.40
2019-01-23T22:00:03.077Z,-5.50
2019-01-23T22:02:31.156Z,-5.50
2019-01-23T22:04:59.184Z,-5.30
2019-01-23T22:07:26.999Z,-5.10
2019-01-23T22:09:54.909Z,-5.00
2019-01-23T22:12:22.971Z,-4.80
2019-01-23T22:14:50.700Z,-4.80
2019-01-23T22:17:18.896Z,-4.80
2019-01-23T22:19:46.832Z,-4.80
2019-01-23T22:22:14.502Z,-4.70
2019-01-23T22:24:42.249Z,-4.70
2019-01-23T22:27:10.083Z,-4.70
2019-01-23T22:29:38.025Z,-4.70
2019-01-23T22:32:05.734Z,-4.80
2019-01-23T22:34:33.388Z,-4.80
2019-01-23T22:37:01.191Z,-4.80
2019-01-23T22:39:28.746Z,-4.80
2019-01-23T22:41:56.536Z,-4.90
2019-01-23T22:44:24.560Z,-4.90
2019-01-23T22:46:52.344Z,-4.90
2019-01-23T22:49:20.094Z,-4.90
2019-01-23T22:51:48.190Z,-4.90
2019-01-23T22:54:15.757Z,-5.00
2019-01-23T22:56:44.164Z,-4.90
2019-01-23T22:59:11.776Z,-4.90
2019-01-23T23:01:39.532Z,-4.80
2019-01-23T23:04:07.331Z,-4.80
2019-01-23T23:06:35.406Z,-4.80
2019-01-23T23:09:08.949Z,-4.70
2019-01-23T23:11:37.101Z,-4.70
2019-01-23T23:14:05.589Z,-4.80
2019-01-23T23:16:33.633Z,-4.70
2019-01-23T23:19:01.443Z,-4.70
2019-01-23T23:21:29.224Z,-4.70
2019-01-23T23:23:56.709Z,-4.70
2019-01-23T23:26:24.488Z,-4.80
2019-01-23T23:28:52.302Z,-4.80
2019-01-23T23:31:20.096Z,-4.80
2019-01-23T23:33:47.823Z,-4.80
2019-01-23T23:36:15.883Z,-4.80
2019-01-23T23:38:43.610Z,-4.70
2019-01-23T23:41:11.636Z,-4.70
2019-01-23T23:43:39.316Z,-4.60
2019-01-23T23:46:07.186Z,-4.60
2019-01-23T23:48:35.157Z,-4.60
2019-01-23T23:51:03.309Z,-4.60
2019-01-23T23:53:31.393Z,-4.50
2019-01-23T23:55:59.352Z,-4.50
2019-01-23T23:58:26.959Z,-4.50
